<?xml version="1.0" encoding="UTF-8" standalone="no" ?>
<gpx xmlns="http://www.topografix.com/GPX/1/1" xmlns:xsi="http://www.w3.org/2001/XMLSchema-instance" xsi:schemaLocation="http://www.topografix.com/GPX/1/1 http://www.topografix.com/GPX/1/1/gpx.xsd" version="1.1" creator="VisuGPX - https://www.visugpx.com">
  <metadata>
    <name>Boucle de la Grotte de la Chèvre d'Or à Roquefort-les-Pins</name>
  </metadata>
  <wpt lat="43.66968" lon="7.05802">
    <ele>242</ele>
    <name><![CDATA[Chemin du Debram]]></name>
  </wpt>
  <wpt lat="43.67352" lon="7.05909">
    <ele>249</ele>
    <name><![CDATA[Champ des Bertrands]]></name>
  </wpt>
  <wpt lat="43.67631" lon="7.06447">
    <ele>222</ele>
    <name><![CDATA[Départ sentier à partir du Chemin Notre Dame]]></name>
  </wpt>
  <wpt lat="43.68378" lon="7.06874">
    <ele>176</ele>
    <name><![CDATA[Grotte de la Chèvre d'Or]]></name>
  </wpt>
  <wpt lat="43.6818" lon="7.06502">
    <ele>237</ele>
    <name><![CDATA[puit sur la droite]]></name>
  </wpt>
  <wpt lat="43.68107" lon="7.06439">
    <ele>243</ele>
    <name><![CDATA[Bifurcation Chemin du Camp Tracier]]></name>
  </wpt>
  <wpt lat="43.6788" lon="7.05691">
    <ele>230</ele>
    <name><![CDATA[Grotte aux abords du Chemin Notre Dame]]></name>
  </wpt>
  <wpt lat="43.67941" lon="7.05421">
    <ele>216</ele>
    <name><![CDATA[Retour sur chemin du Debram]]></name>
  </wpt>
  <wpt lat="43.66969" lon="7.05802">
    <ele>242</ele>
    <name><![CDATA[Chemin du Debram]]></name>
  </wpt>
  <trk>
    <name><![CDATA[Boucle de la Grotte de la Chèvre d'Or à Roquefort-les-Pins]]></name>
    <trkseg>
      <trkpt lat="43.66968" lon="7.05802">
        <ele>242</ele>
        <time>2020-02-16T14:02:13+01:00</time>
      </trkpt>
      <trkpt lat="43.67041" lon="7.05817">
        <ele>245</ele>
        <time>2020-02-16T14:05:11+01:00</time>
      </trkpt>
      <trkpt lat="43.67064" lon="7.05821">
        <ele>248</ele>
        <time>2020-02-16T14:05:36+01:00</time>
      </trkpt>
      <trkpt lat="43.67081" lon="7.05841">
        <ele>248</ele>
        <time>2020-02-16T14:05:59+01:00</time>
      </trkpt>
      <trkpt lat="43.67095" lon="7.05866">
        <ele>248</ele>
        <time>2020-02-16T14:06:20+01:00</time>
      </trkpt>
      <trkpt lat="43.67103" lon="7.05897">
        <ele>247</ele>
        <time>2020-02-16T14:06:48+01:00</time>
      </trkpt>
      <trkpt lat="43.67125" lon="7.05905">
        <ele>248</ele>
        <time>2020-02-16T14:07:22+01:00</time>
      </trkpt>
      <trkpt lat="43.67149" lon="7.05903">
        <ele>249</ele>
        <time>2020-02-16T14:07:48+01:00</time>
      </trkpt>
      <trkpt lat="43.6717" lon="7.05914">
        <ele>249</ele>
        <time>2020-02-16T14:08:51+01:00</time>
      </trkpt>
      <trkpt lat="43.67192" lon="7.05905">
        <ele>249</ele>
        <time>2020-02-16T14:09:15+01:00</time>
      </trkpt>
      <trkpt lat="43.67216" lon="7.05905">
        <ele>250</ele>
        <time>2020-02-16T14:09:38+01:00</time>
      </trkpt>
      <trkpt lat="43.67238" lon="7.05913">
        <ele>250</ele>
        <time>2020-02-16T14:09:58+01:00</time>
      </trkpt>
      <trkpt lat="43.67261" lon="7.05917">
        <ele>250</ele>
        <time>2020-02-16T14:10:19+01:00</time>
      </trkpt>
      <trkpt lat="43.67284" lon="7.05914">
        <ele>250</ele>
        <time>2020-02-16T14:10:39+01:00</time>
      </trkpt>
      <trkpt lat="43.67306" lon="7.05908">
        <ele>250</ele>
        <time>2020-02-16T14:11:00+01:00</time>
      </trkpt>
      <trkpt lat="43.67329" lon="7.05911">
        <ele>250</ele>
        <time>2020-02-16T14:11:22+01:00</time>
      </trkpt>
      <trkpt lat="43.67352" lon="7.05909">
        <ele>249</ele>
        <time>2020-02-16T14:11:55+01:00</time>
      </trkpt>
      <trkpt lat="43.67365" lon="7.05935">
        <ele>248</ele>
        <time>2020-02-16T14:12:57+01:00</time>
      </trkpt>
      <trkpt lat="43.67377" lon="7.05962">
        <ele>248</ele>
        <time>2020-02-16T14:13:23+01:00</time>
      </trkpt>
      <trkpt lat="43.67388" lon="7.0599">
        <ele>246</ele>
        <time>2020-02-16T14:13:53+01:00</time>
      </trkpt>
      <trkpt lat="43.67387" lon="7.06021">
        <ele>246</ele>
        <time>2020-02-16T14:14:19+01:00</time>
      </trkpt>
      <trkpt lat="43.67388" lon="7.06054">
        <ele>245</ele>
        <time>2020-02-16T14:14:42+01:00</time>
      </trkpt>
      <trkpt lat="43.674" lon="7.0608">
        <ele>244</ele>
        <time>2020-02-16T14:15:09+01:00</time>
      </trkpt>
      <trkpt lat="43.67411" lon="7.06108">
        <ele>242</ele>
        <time>2020-02-16T14:15:31+01:00</time>
      </trkpt>
      <trkpt lat="43.6742" lon="7.06138">
        <ele>241</ele>
        <time>2020-02-16T14:15:54+01:00</time>
      </trkpt>
      <trkpt lat="43.67427" lon="7.06168">
        <ele>240</ele>
        <time>2020-02-16T14:16:18+01:00</time>
      </trkpt>
      <trkpt lat="43.67443" lon="7.06191">
        <ele>240</ele>
        <time>2020-02-16T14:16:41+01:00</time>
      </trkpt>
      <trkpt lat="43.67463" lon="7.06208">
        <ele>240</ele>
        <time>2020-02-16T14:17:06+01:00</time>
      </trkpt>
      <trkpt lat="43.67486" lon="7.06219">
        <ele>240</ele>
        <time>2020-02-16T14:17:28+01:00</time>
      </trkpt>
      <trkpt lat="43.67496" lon="7.06247">
        <ele>240</ele>
        <time>2020-02-16T14:17:51+01:00</time>
      </trkpt>
      <trkpt lat="43.67505" lon="7.06276">
        <ele>240</ele>
        <time>2020-02-16T14:18:15+01:00</time>
      </trkpt>
      <trkpt lat="43.67511" lon="7.06307">
        <ele>239</ele>
        <time>2020-02-16T14:18:40+01:00</time>
      </trkpt>
      <trkpt lat="43.67527" lon="7.06329">
        <ele>237</ele>
        <time>2020-02-16T14:19:04+01:00</time>
      </trkpt>
      <trkpt lat="43.6755" lon="7.06321">
        <ele>238</ele>
        <time>2020-02-16T14:19:26+01:00</time>
      </trkpt>
      <trkpt lat="43.67567" lon="7.06301">
        <ele>238</ele>
        <time>2020-02-16T14:19:49+01:00</time>
      </trkpt>
      <trkpt lat="43.67585" lon="7.06282">
        <ele>235</ele>
        <time>2020-02-16T14:20:15+01:00</time>
      </trkpt>
      <trkpt lat="43.67603" lon="7.0627">
        <ele>235</ele>
        <time>2020-02-16T14:20:43+01:00</time>
      </trkpt>
      <trkpt lat="43.67629" lon="7.06264">
        <ele>236</ele>
      </trkpt>
      <trkpt lat="43.67629" lon="7.06282">
        <ele>234</ele>
        <time>2020-02-16T14:21:02+01:00</time>
      </trkpt>
      <trkpt lat="43.67635" lon="7.06321">
        <ele>232</ele>
        <time>2020-02-16T14:21:25+01:00</time>
      </trkpt>
      <trkpt lat="43.67638" lon="7.06353">
        <ele>230</ele>
        <time>2020-02-16T14:21:45+01:00</time>
      </trkpt>
      <trkpt lat="43.67644" lon="7.0639">
        <ele>228</ele>
        <time>2020-02-16T14:22:06+01:00</time>
      </trkpt>
      <trkpt lat="43.67636" lon="7.06416">
        <ele>225</ele>
        <time>2020-02-16T14:22:29+01:00</time>
      </trkpt>
      <trkpt lat="43.67631" lon="7.06447">
        <ele>222</ele>
        <time>2020-02-16T14:22:51+01:00</time>
      </trkpt>
      <trkpt lat="43.67649" lon="7.06467">
        <ele>223</ele>
        <time>2020-02-16T14:23:15+01:00</time>
      </trkpt>
      <trkpt lat="43.67663" lon="7.06491">
        <ele>225</ele>
        <time>2020-02-16T14:23:39+01:00</time>
      </trkpt>
      <trkpt lat="43.67673" lon="7.06506">
        <ele>227</ele>
        <time>2020-02-16T14:31:04+01:00</time>
      </trkpt>
      <trkpt lat="43.67673" lon="7.06507">
        <ele>227</ele>
        <time>2020-02-16T14:33:44+01:00</time>
      </trkpt>
      <trkpt lat="43.67679" lon="7.06537">
        <ele>229</ele>
        <time>2020-02-16T14:36:21+01:00</time>
      </trkpt>
      <trkpt lat="43.67682" lon="7.06564">
        <ele>229</ele>
        <time>2020-02-16T14:36:46+01:00</time>
      </trkpt>
      <trkpt lat="43.67687" lon="7.06578">
        <ele>230</ele>
        <time>2020-02-16T14:38:36+01:00</time>
      </trkpt>
      <trkpt lat="43.67703" lon="7.06586">
        <ele>233</ele>
        <time>2020-02-16T14:39:09+01:00</time>
      </trkpt>
      <trkpt lat="43.67723" lon="7.06588">
        <ele>236</ele>
        <time>2020-02-16T14:39:35+01:00</time>
      </trkpt>
      <trkpt lat="43.67744" lon="7.06615">
        <ele>236</ele>
      </trkpt>
      <trkpt lat="43.67756" lon="7.06613">
        <ele>237</ele>
        <time>2020-02-16T14:40:23+01:00</time>
      </trkpt>
      <trkpt lat="43.67775" lon="7.06619">
        <ele>238</ele>
        <time>2020-02-16T14:40:47+01:00</time>
      </trkpt>
      <trkpt lat="43.67797" lon="7.06621">
        <ele>239</ele>
        <time>2020-02-16T14:41:20+01:00</time>
      </trkpt>
      <trkpt lat="43.67819" lon="7.06628">
        <ele>239</ele>
        <time>2020-02-16T14:41:45+01:00</time>
      </trkpt>
      <trkpt lat="43.67843" lon="7.06625">
        <ele>239</ele>
        <time>2020-02-16T14:42:13+01:00</time>
      </trkpt>
      <trkpt lat="43.67866" lon="7.06629">
        <ele>238</ele>
        <time>2020-02-16T14:42:36+01:00</time>
      </trkpt>
      <trkpt lat="43.67888" lon="7.06624">
        <ele>240</ele>
        <time>2020-02-16T14:43:06+01:00</time>
      </trkpt>
      <trkpt lat="43.6791" lon="7.06616">
        <ele>243</ele>
        <time>2020-02-16T14:43:34+01:00</time>
      </trkpt>
      <trkpt lat="43.67934" lon="7.06618">
        <ele>245</ele>
        <time>2020-02-16T14:43:55+01:00</time>
      </trkpt>
      <trkpt lat="43.67956" lon="7.06627">
        <ele>245</ele>
        <time>2020-02-16T14:44:15+01:00</time>
      </trkpt>
      <trkpt lat="43.6798" lon="7.06631">
        <ele>246</ele>
        <time>2020-02-16T14:44:40+01:00</time>
      </trkpt>
      <trkpt lat="43.68003" lon="7.06634">
        <ele>245</ele>
        <time>2020-02-16T14:45:07+01:00</time>
      </trkpt>
      <trkpt lat="43.68015" lon="7.0666">
        <ele>242</ele>
        <time>2020-02-16T14:45:48+01:00</time>
      </trkpt>
      <trkpt lat="43.68024" lon="7.06689">
        <ele>239</ele>
        <time>2020-02-16T14:46:17+01:00</time>
      </trkpt>
      <trkpt lat="43.68047" lon="7.06693">
        <ele>235</ele>
        <time>2020-02-16T14:46:38+01:00</time>
      </trkpt>
      <trkpt lat="43.68069" lon="7.06699">
        <ele>232</ele>
        <time>2020-02-16T14:46:55+01:00</time>
      </trkpt>
      <trkpt lat="43.68091" lon="7.0671">
        <ele>229</ele>
        <time>2020-02-16T14:47:14+01:00</time>
      </trkpt>
      <trkpt lat="43.68113" lon="7.06718">
        <ele>227</ele>
        <time>2020-02-16T14:47:35+01:00</time>
      </trkpt>
      <trkpt lat="43.68137" lon="7.0672">
        <ele>225</ele>
        <time>2020-02-16T14:48:01+01:00</time>
      </trkpt>
      <trkpt lat="43.68152" lon="7.06745">
        <ele>222</ele>
        <time>2020-02-16T14:48:31+01:00</time>
      </trkpt>
      <trkpt lat="43.68155" lon="7.06776">
        <ele>219</ele>
        <time>2020-02-16T14:48:55+01:00</time>
      </trkpt>
      <trkpt lat="43.68148" lon="7.06807">
        <ele>217</ele>
        <time>2020-02-16T14:49:21+01:00</time>
      </trkpt>
      <trkpt lat="43.68145" lon="7.06839">
        <ele>212</ele>
        <time>2020-02-16T14:49:45+01:00</time>
      </trkpt>
      <trkpt lat="43.68161" lon="7.0686">
        <ele>208</ele>
        <time>2020-02-16T14:50:09+01:00</time>
      </trkpt>
      <trkpt lat="43.6818" lon="7.06878">
        <ele>204</ele>
        <time>2020-02-16T14:50:38+01:00</time>
      </trkpt>
      <trkpt lat="43.68204" lon="7.06882">
        <ele>202</ele>
        <time>2020-02-16T14:51:03+01:00</time>
      </trkpt>
      <trkpt lat="43.68227" lon="7.06882">
        <ele>200</ele>
        <time>2020-02-16T14:51:44+01:00</time>
      </trkpt>
      <trkpt lat="43.6825" lon="7.0688">
        <ele>195</ele>
        <time>2020-02-16T14:52:27+01:00</time>
      </trkpt>
      <trkpt lat="43.68274" lon="7.06885">
        <ele>189</ele>
        <time>2020-02-16T14:54:35+01:00</time>
      </trkpt>
      <trkpt lat="43.68296" lon="7.06892">
        <ele>185</ele>
        <time>2020-02-16T14:54:53+01:00</time>
      </trkpt>
      <trkpt lat="43.68316" lon="7.06907">
        <ele>181</ele>
        <time>2020-02-16T14:55:10+01:00</time>
      </trkpt>
      <trkpt lat="43.68339" lon="7.06908">
        <ele>175</ele>
        <time>2020-02-16T14:56:31+01:00</time>
      </trkpt>
      <trkpt lat="43.6836" lon="7.06892">
        <ele>173</ele>
        <time>2020-02-16T14:56:54+01:00</time>
      </trkpt>
      <trkpt lat="43.68378" lon="7.06874">
        <ele>176</ele>
        <time>2020-02-16T14:57:14+01:00</time>
      </trkpt>
      <trkpt lat="43.6838" lon="7.06862">
        <ele>179</ele>
        <time>2020-02-16T14:58:49+01:00</time>
      </trkpt>
      <trkpt lat="43.6837" lon="7.06856">
        <ele>180</ele>
        <time>2020-02-16T15:06:42+01:00</time>
      </trkpt>
      <trkpt lat="43.68347" lon="7.06862">
        <ele>181</ele>
        <time>2020-02-16T15:07:53+01:00</time>
      </trkpt>
      <trkpt lat="43.6833" lon="7.06847">
        <ele>187</ele>
        <time>2020-02-16T15:08:18+01:00</time>
      </trkpt>
      <trkpt lat="43.68309" lon="7.06821">
        <ele>192</ele>
        <time>2020-02-16T15:08:56+01:00</time>
      </trkpt>
      <trkpt lat="43.68302" lon="7.06785">
        <ele>197</ele>
        <time>2020-02-16T15:09:26+01:00</time>
      </trkpt>
      <trkpt lat="43.68294" lon="7.06769">
        <ele>199</ele>
        <time>2020-02-16T15:10:00+01:00</time>
      </trkpt>
      <trkpt lat="43.68279" lon="7.06747">
        <ele>202</ele>
        <time>2020-02-16T15:10:59+01:00</time>
      </trkpt>
      <trkpt lat="43.68271" lon="7.06717">
        <ele>206</ele>
        <time>2020-02-16T15:11:25+01:00</time>
      </trkpt>
      <trkpt lat="43.68262" lon="7.06687">
        <ele>209</ele>
        <time>2020-02-16T15:11:52+01:00</time>
      </trkpt>
      <trkpt lat="43.68257" lon="7.06656">
        <ele>213</ele>
        <time>2020-02-16T15:12:20+01:00</time>
      </trkpt>
      <trkpt lat="43.68247" lon="7.06628">
        <ele>217</ele>
        <time>2020-02-16T15:12:58+01:00</time>
      </trkpt>
      <trkpt lat="43.68232" lon="7.06603">
        <ele>222</ele>
        <time>2020-02-16T15:13:34+01:00</time>
      </trkpt>
      <trkpt lat="43.68218" lon="7.06579">
        <ele>227</ele>
        <time>2020-02-16T15:14:08+01:00</time>
      </trkpt>
      <trkpt lat="43.68204" lon="7.06554">
        <ele>231</ele>
        <time>2020-02-16T15:15:12+01:00</time>
      </trkpt>
      <trkpt lat="43.68188" lon="7.06531">
        <ele>234</ele>
        <time>2020-02-16T15:15:48+01:00</time>
      </trkpt>
      <trkpt lat="43.6818" lon="7.06502">
        <ele>237</ele>
        <time>2020-02-16T15:16:21+01:00</time>
      </trkpt>
      <trkpt lat="43.68171" lon="7.0647">
        <ele>240</ele>
        <time>2020-02-16T15:17:37+01:00</time>
      </trkpt>
      <trkpt lat="43.68161" lon="7.06442">
        <ele>242</ele>
        <time>2020-02-16T15:18:04+01:00</time>
      </trkpt>
      <trkpt lat="43.68159" lon="7.06411">
        <ele>243</ele>
        <time>2020-02-16T15:18:36+01:00</time>
      </trkpt>
      <trkpt lat="43.68159" lon="7.06379">
        <ele>244</ele>
        <time>2020-02-16T15:19:06+01:00</time>
      </trkpt>
      <trkpt lat="43.68139" lon="7.06394">
        <ele>241</ele>
        <time>2020-02-16T15:20:50+01:00</time>
      </trkpt>
      <trkpt lat="43.68126" lon="7.06419">
        <ele>241</ele>
        <time>2020-02-16T15:21:15+01:00</time>
      </trkpt>
      <trkpt lat="43.68107" lon="7.06439">
        <ele>243</ele>
        <time>2020-02-16T15:21:55+01:00</time>
      </trkpt>
      <trkpt lat="43.68111" lon="7.06408">
        <ele>242</ele>
        <time>2020-02-16T15:22:37+01:00</time>
      </trkpt>
      <trkpt lat="43.68113" lon="7.06377">
        <ele>241</ele>
        <time>2020-02-16T15:23:01+01:00</time>
      </trkpt>
      <trkpt lat="43.68119" lon="7.06346">
        <ele>241</ele>
        <time>2020-02-16T15:23:29+01:00</time>
      </trkpt>
      <trkpt lat="43.68122" lon="7.06315">
        <ele>240</ele>
        <time>2020-02-16T15:24:03+01:00</time>
      </trkpt>
      <trkpt lat="43.68101" lon="7.06299">
        <ele>240</ele>
        <time>2020-02-16T15:24:29+01:00</time>
      </trkpt>
      <trkpt lat="43.68084" lon="7.06279">
        <ele>240</ele>
        <time>2020-02-16T15:24:53+01:00</time>
      </trkpt>
      <trkpt lat="43.68066" lon="7.0626">
        <ele>239</ele>
        <time>2020-02-16T15:25:18+01:00</time>
      </trkpt>
      <trkpt lat="43.68052" lon="7.06234">
        <ele>237</ele>
        <time>2020-02-16T15:25:47+01:00</time>
      </trkpt>
      <trkpt lat="43.68048" lon="7.06203">
        <ele>235</ele>
        <time>2020-02-16T15:26:14+01:00</time>
      </trkpt>
      <trkpt lat="43.68033" lon="7.06178">
        <ele>232</ele>
        <time>2020-02-16T15:26:46+01:00</time>
      </trkpt>
      <trkpt lat="43.68016" lon="7.06156">
        <ele>231</ele>
        <time>2020-02-16T15:27:09+01:00</time>
      </trkpt>
      <trkpt lat="43.68007" lon="7.06127">
        <ele>228</ele>
        <time>2020-02-16T15:27:32+01:00</time>
      </trkpt>
      <trkpt lat="43.67994" lon="7.06101">
        <ele>227</ele>
        <time>2020-02-16T15:27:54+01:00</time>
      </trkpt>
      <trkpt lat="43.67983" lon="7.06072">
        <ele>226</ele>
        <time>2020-02-16T15:28:15+01:00</time>
      </trkpt>
      <trkpt lat="43.67973" lon="7.06045">
        <ele>226</ele>
        <time>2020-02-16T15:28:38+01:00</time>
      </trkpt>
      <trkpt lat="43.6796" lon="7.06019">
        <ele>226</ele>
        <time>2020-02-16T15:29:02+01:00</time>
      </trkpt>
      <trkpt lat="43.6795" lon="7.05991">
        <ele>225</ele>
        <time>2020-02-16T15:29:21+01:00</time>
      </trkpt>
      <trkpt lat="43.67951" lon="7.05958">
        <ele>225</ele>
        <time>2020-02-16T15:29:44+01:00</time>
      </trkpt>
      <trkpt lat="43.6794" lon="7.0593">
        <ele>226</ele>
        <time>2020-02-16T15:30:07+01:00</time>
      </trkpt>
      <trkpt lat="43.67931" lon="7.05901">
        <ele>228</ele>
        <time>2020-02-16T15:30:28+01:00</time>
      </trkpt>
      <trkpt lat="43.67927" lon="7.0587">
        <ele>228</ele>
        <time>2020-02-16T15:30:52+01:00</time>
      </trkpt>
      <trkpt lat="43.67922" lon="7.0584">
        <ele>229</ele>
        <time>2020-02-16T15:31:12+01:00</time>
      </trkpt>
      <trkpt lat="43.67915" lon="7.05809">
        <ele>230</ele>
        <time>2020-02-16T15:31:35+01:00</time>
      </trkpt>
      <trkpt lat="43.67907" lon="7.05779">
        <ele>230</ele>
        <time>2020-02-16T15:31:57+01:00</time>
      </trkpt>
      <trkpt lat="43.67901" lon="7.05749">
        <ele>230</ele>
        <time>2020-02-16T15:32:24+01:00</time>
      </trkpt>
      <trkpt lat="43.67889" lon="7.05721">
        <ele>230</ele>
        <time>2020-02-16T15:32:48+01:00</time>
      </trkpt>
      <trkpt lat="43.6788" lon="7.05691">
        <ele>230</ele>
        <time>2020-02-16T15:33:18+01:00</time>
      </trkpt>
      <trkpt lat="43.67887" lon="7.05661">
        <ele>230</ele>
        <time>2020-02-16T15:39:13+01:00</time>
      </trkpt>
      <trkpt lat="43.67892" lon="7.0563">
        <ele>229</ele>
        <time>2020-02-16T15:39:32+01:00</time>
      </trkpt>
      <trkpt lat="43.67896" lon="7.05599">
        <ele>228</ele>
        <time>2020-02-16T15:39:52+01:00</time>
      </trkpt>
      <trkpt lat="43.67906" lon="7.05571">
        <ele>227</ele>
        <time>2020-02-16T15:40:11+01:00</time>
      </trkpt>
      <trkpt lat="43.67915" lon="7.05542">
        <ele>225</ele>
        <time>2020-02-16T15:40:30+01:00</time>
      </trkpt>
      <trkpt lat="43.67925" lon="7.05513">
        <ele>222</ele>
        <time>2020-02-16T15:40:50+01:00</time>
      </trkpt>
      <trkpt lat="43.67934" lon="7.05483">
        <ele>220</ele>
        <time>2020-02-16T15:41:09+01:00</time>
      </trkpt>
      <trkpt lat="43.6794" lon="7.05453">
        <ele>218</ele>
        <time>2020-02-16T15:41:30+01:00</time>
      </trkpt>
      <trkpt lat="43.67941" lon="7.05421">
        <ele>216</ele>
        <time>2020-02-16T15:41:49+01:00</time>
      </trkpt>
      <trkpt lat="43.67921" lon="7.05405">
        <ele>214</ele>
        <time>2020-02-16T15:42:06+01:00</time>
      </trkpt>
      <trkpt lat="43.67899" lon="7.05393">
        <ele>216</ele>
        <time>2020-02-16T15:42:26+01:00</time>
      </trkpt>
      <trkpt lat="43.67879" lon="7.05378">
        <ele>219</ele>
        <time>2020-02-16T15:42:46+01:00</time>
      </trkpt>
      <trkpt lat="43.67857" lon="7.05368">
        <ele>222</ele>
        <time>2020-02-16T15:43:08+01:00</time>
      </trkpt>
      <trkpt lat="43.67836" lon="7.05354">
        <ele>223</ele>
        <time>2020-02-16T15:43:27+01:00</time>
      </trkpt>
      <trkpt lat="43.67818" lon="7.05334">
        <ele>223</ele>
        <time>2020-02-16T15:43:51+01:00</time>
      </trkpt>
      <trkpt lat="43.67798" lon="7.05317">
        <ele>222</ele>
        <time>2020-02-16T15:44:10+01:00</time>
      </trkpt>
      <trkpt lat="43.67776" lon="7.05305">
        <ele>222</ele>
        <time>2020-02-16T15:44:32+01:00</time>
      </trkpt>
      <trkpt lat="43.67754" lon="7.05296">
        <ele>221</ele>
        <time>2020-02-16T15:44:53+01:00</time>
      </trkpt>
      <trkpt lat="43.67732" lon="7.05287">
        <ele>222</ele>
        <time>2020-02-16T15:45:13+01:00</time>
      </trkpt>
      <trkpt lat="43.67711" lon="7.05274">
        <ele>224</ele>
        <time>2020-02-16T15:45:34+01:00</time>
      </trkpt>
      <trkpt lat="43.6769" lon="7.0526">
        <ele>227</ele>
        <time>2020-02-16T15:45:58+01:00</time>
      </trkpt>
      <trkpt lat="43.6767" lon="7.05245">
        <ele>230</ele>
        <time>2020-02-16T15:46:19+01:00</time>
      </trkpt>
      <trkpt lat="43.6765" lon="7.0523">
        <ele>231</ele>
        <time>2020-02-16T15:46:43+01:00</time>
      </trkpt>
      <trkpt lat="43.67627" lon="7.05225">
        <ele>233</ele>
        <time>2020-02-16T15:47:02+01:00</time>
      </trkpt>
      <trkpt lat="43.67604" lon="7.05223">
        <ele>236</ele>
        <time>2020-02-16T15:47:23+01:00</time>
      </trkpt>
      <trkpt lat="43.67581" lon="7.05222">
        <ele>237</ele>
        <time>2020-02-16T15:47:43+01:00</time>
      </trkpt>
      <trkpt lat="43.67559" lon="7.05226">
        <ele>238</ele>
        <time>2020-02-16T15:48:05+01:00</time>
      </trkpt>
      <trkpt lat="43.67536" lon="7.05233">
        <ele>240</ele>
        <time>2020-02-16T15:48:25+01:00</time>
      </trkpt>
      <trkpt lat="43.67514" lon="7.0524">
        <ele>241</ele>
        <time>2020-02-16T15:48:45+01:00</time>
      </trkpt>
      <trkpt lat="43.67492" lon="7.05248">
        <ele>241</ele>
        <time>2020-02-16T15:49:06+01:00</time>
      </trkpt>
      <trkpt lat="43.6747" lon="7.05254">
        <ele>240</ele>
        <time>2020-02-16T15:49:25+01:00</time>
      </trkpt>
      <trkpt lat="43.67449" lon="7.05267">
        <ele>240</ele>
        <time>2020-02-16T15:49:47+01:00</time>
      </trkpt>
      <trkpt lat="43.67431" lon="7.05286">
        <ele>240</ele>
        <time>2020-02-16T15:50:07+01:00</time>
      </trkpt>
      <trkpt lat="43.67414" lon="7.05307">
        <ele>241</ele>
        <time>2020-02-16T15:50:30+01:00</time>
      </trkpt>
      <trkpt lat="43.67397" lon="7.05328">
        <ele>243</ele>
        <time>2020-02-16T15:50:52+01:00</time>
      </trkpt>
      <trkpt lat="43.6738" lon="7.05349">
        <ele>244</ele>
        <time>2020-02-16T15:51:17+01:00</time>
      </trkpt>
      <trkpt lat="43.67364" lon="7.05371">
        <ele>246</ele>
        <time>2020-02-16T15:51:41+01:00</time>
      </trkpt>
      <trkpt lat="43.67347" lon="7.05392">
        <ele>248</ele>
        <time>2020-02-16T15:52:04+01:00</time>
      </trkpt>
      <trkpt lat="43.67329" lon="7.0541">
        <ele>250</ele>
        <time>2020-02-16T15:52:27+01:00</time>
      </trkpt>
      <trkpt lat="43.67307" lon="7.05425">
        <ele>251</ele>
        <time>2020-02-16T15:52:48+01:00</time>
      </trkpt>
      <trkpt lat="43.67287" lon="7.0544">
        <ele>253</ele>
        <time>2020-02-16T15:53:09+01:00</time>
      </trkpt>
      <trkpt lat="43.6727" lon="7.05461">
        <ele>254</ele>
        <time>2020-02-16T15:53:29+01:00</time>
      </trkpt>
      <trkpt lat="43.67252" lon="7.05482">
        <ele>254</ele>
        <time>2020-02-16T15:53:50+01:00</time>
      </trkpt>
      <trkpt lat="43.67234" lon="7.05503">
        <ele>255</ele>
        <time>2020-02-16T15:54:11+01:00</time>
      </trkpt>
      <trkpt lat="43.67214" lon="7.05517">
        <ele>254</ele>
        <time>2020-02-16T15:54:32+01:00</time>
      </trkpt>
      <trkpt lat="43.67197" lon="7.05537">
        <ele>253</ele>
        <time>2020-02-16T15:54:54+01:00</time>
      </trkpt>
      <trkpt lat="43.67181" lon="7.05561">
        <ele>252</ele>
        <time>2020-02-16T15:55:13+01:00</time>
      </trkpt>
      <trkpt lat="43.67165" lon="7.05583">
        <ele>250</ele>
        <time>2020-02-16T15:55:33+01:00</time>
      </trkpt>
      <trkpt lat="43.67148" lon="7.05603">
        <ele>249</ele>
        <time>2020-02-16T15:55:53+01:00</time>
      </trkpt>
      <trkpt lat="43.67131" lon="7.05625">
        <ele>251</ele>
        <time>2020-02-16T15:56:12+01:00</time>
      </trkpt>
      <trkpt lat="43.67116" lon="7.05648">
        <ele>252</ele>
        <time>2020-02-16T15:56:32+01:00</time>
      </trkpt>
      <trkpt lat="43.67101" lon="7.05668">
        <ele>252</ele>
        <time>2020-02-16T15:56:52+01:00</time>
      </trkpt>
      <trkpt lat="43.67081" lon="7.0569">
        <ele>252</ele>
        <time>2020-02-16T15:57:13+01:00</time>
      </trkpt>
      <trkpt lat="43.67062" lon="7.05716">
        <ele>250</ele>
        <time>2020-02-16T15:57:33+01:00</time>
      </trkpt>
      <trkpt lat="43.67045" lon="7.05734">
        <ele>249</ele>
        <time>2020-02-16T15:57:55+01:00</time>
      </trkpt>
      <trkpt lat="43.67025" lon="7.05756">
        <ele>246</ele>
        <time>2020-02-16T15:58:14+01:00</time>
      </trkpt>
      <trkpt lat="43.67011" lon="7.05768">
        <ele>245</ele>
        <time>2020-02-16T15:58:34+01:00</time>
      </trkpt>
      <trkpt lat="43.66989" lon="7.05784">
        <ele>242</ele>
        <time>2020-02-16T15:58:55+01:00</time>
      </trkpt>
      <trkpt lat="43.66969" lon="7.05802">
        <ele>242</ele>
        <time>2020-02-16T15:59:17+01:00</time>
      </trkpt>
    </trkseg>
  </trk>
</gpx>